• Join FlightAware (Why Join?)
  • Login
  • US Flag 
08:41AM EDT


 

Airport Tracker/Info


-or-


 

Live Flight TrackerFlight Track Log ✈ UAL109 ✈ 14-Jul-2013 ✈ EGPH / EDI - KEWR

Flight Track Log - Related Links

Times and Time Zones

All times are in EDT time to prevent confusion due to time zone crossing. See the UAL109 flight status page for this flight to view local times or setup timezone preferences in your user account.

Time Position Orientation Groundspeed Altitude Reporting Facility
EDT Latitude Longitude Course Direction KTS MPH feet Rate Location/Type
06:58AM 55.9490 -3.3680 332° Northwest 3 3  Level FlightAware
06:58AM 55.9500 -3.3690 331° Northwest 12 14  Level FlightAware
06:59AM 55.9510 -3.3670 48° Northeast 14 16  Level FlightAware
06:59AM 55.9520 -3.3640 59° Northeast 14 16 60 Level FlightAware
07:00AM 55.9530 -3.3610 59° Northeast 15 17 60 Level FlightAware
07:00AM 55.9540 -3.3580 59° Northeast 16 18 60 Level FlightAware
07:01AM 55.9550 -3.3550 59° Northeast 11 13 60 Level FlightAware
07:01AM 55.9570 -3.3560 344° North 10 12 60 Level FlightAware
07:03AM 55.9540 -3.3670 281° West 110 127 60 Level FlightAware
07:04AM 55.9825 -3.8089 281° West  Level FlightAware Approximate
07:04AM 55.9450 -3.3910 236° Southwest 168 193 300  Level FlightAware
07:04AM 55.9330 -3.4260 239° Southwest 160 184 1,900 2,580 Climbing FlightAware
07:05AM 55.9210 -3.4600 238° Southwest 169 194 2,900 1,740 Climbing FlightAware
07:05AM 55.9050 -3.5150 243° Southwest 203 234 3,900 1,560 Climbing FlightAware
07:06AM 55.9020 -3.5600 263° West 229 264 4,600 1,920 Climbing FlightAware
07:06AM 55.8960 -3.6170 259° West 248 285 5,700 2,220 Climbing FlightAware
07:07AM 55.8930 -3.6400 257° West 255 293 6,100 2,520 Climbing FlightAware
07:07AM 55.8880 -3.6990 261° West 261 300 7,400 2,760 Climbing FlightAware
07:08AM 55.8810 -3.7670 260° West 263 303 8,900 2,760 Climbing FlightAware
07:08AM 55.8750 -3.8210 259° West 268 308 10,000 1,800 Climbing FlightAware
07:09AM 55.8642 -3.9125 259° West 330 380 10,900 1,320 Climbing FlightAware UK
07:09AM 55.8650 -3.9210 259° West 305 351 11,000 1,560 Climbing FlightAware
07:09AM 55.8580 -3.9560 250° West 323 372 11,400 1,800 Climbing FlightAware
07:10AM 55.8190 -4.0470 233° Southwest 344 396 12,700 1,800 Climbing FlightAware
07:11AM 55.7550 -4.1740 233° Southwest 373 429 14,700 2,040 Climbing FlightAware
07:11AM 55.7345 -4.2081 233° Southwest 396 456 15,200 2,460 Climbing FlightAware UK
07:12AM 55.6920 -4.3060 230° Southwest 384 442 16,600 1,980 Climbing FlightAware
07:12AM 55.6540 -4.4100 237° Southwest 388 447 17,900 1,920 Climbing FlightAware
07:13AM 55.6220 -4.5260 244° Southwest 394 453 19,200 1,980 Climbing FlightAware
07:14AM 55.5880 -4.6480 244° Southwest 400 460 20,600 1,800 Climbing FlightAware
07:14AM 55.5520 -4.7810 244° Southwest 410 472 21,800 1,500 Climbing FlightAware
07:14AM 55.5462 -4.7862 244° Southwest 440 506 21,800 1,620 Level FlightAware UK
07:15AM 55.5210 -4.8759 244° Southwest 446 513 22,700 1,740 Climbing FlightAware UK
07:15AM 55.5180 -4.9020 244° Southwest 415 478 22,900 1,500 Climbing FlightAware
07:16AM 55.4840 -5.0230 244° Southwest 423 487 23,900 1,440 Climbing FlightAware
07:16AM 55.4440 -5.1630 243° Southwest 429 494 25,000 1,380 Climbing FlightAware
07:17AM 55.4080 -5.2900 244° Southwest 435 501 25,900 1,260 Climbing FlightAware
07:18AM 55.3660 -5.4360 243° Southwest 444 511 26,800 1,080 Climbing FlightAware
07:18AM 55.3289 -5.5504 243° Southwest 478 550 27,400 900 Climbing FlightAware UK
07:18AM 55.3310 -5.5610 243° Southwest 452 520 27,400 1,260 Level FlightAware
07:19AM 55.2870 -5.7110 243° Southwest 456 525 28,400 1,320 Climbing FlightAware
07:20AM 55.2547 -5.8056 243° Southwest 484 557 29,100 1,440 Climbing FlightAware UK
07:20AM 55.2470 -5.8480 243° Southwest 453 521 29,400 1,500 Climbing FlightAware
07:21AM 55.2100 -5.9770 243° Southwest 451 519 30,400 1,440 Climbing FlightAware
07:22AM 55.1550 -6.1620 243° Southwest 447 514 31,800 1,380 Climbing FlightAware
07:22AM 55.1190 -6.2860 243° Southwest 445 512 32,700 1,200 Climbing FlightAware
07:22AM 55.1128 -6.2863 243° Southwest 474 545 32,700 1,080 Level FlightAware UK
07:23AM 55.0845 -6.3808 243° Southwest 470 541 33,300 1,200 Climbing FlightAware UK
07:23AM 55.0780 -6.4220 243° Southwest 439 505 33,500 1,080 Climbing FlightAware
07:24AM 55.0410 -6.5470 243° Southwest 440 506 34,200 960 Climbing FlightAware
07:24AM 54.9996 -6.6630 243° Southwest 468 539 34,800 960 Climbing FlightAware UK
07:24AM 54.9930 -6.7040 243° Southwest 439 505 35,000 240 Climbing FlightAware
07:25AM 54.9540 -6.8310 242° Southwest 444 511 35,000  Level FlightAware
07:26AM 54.9142 -6.9451 242° Southwest 466 536 35,000  Level FlightAware UK
07:26AM 54.9170 -6.9570 242° Southwest 440 506 35,000 780 Level FlightAware
07:26AM 54.8919 -7.0433 242° Southwest 466 536 35,400 900 Climbing FlightAware UK
07:26AM 54.8870 -7.0900 242° Southwest 440 506 35,600 720 Climbing FlightAware
07:27AM 54.8610 -7.2210 251° West 441 507 36,000 300 Climbing FlightAware
07:28AM 54.8370 -7.3400 251° West 442 509 36,000  Level FlightAware
07:28AM 54.8325 -7.3422 251° West 466 536 36,000  Level FlightAware UK
07:28AM 54.8091 -7.4615 251° West 466 536 36,000  Level FlightAware UK
07:28AM 54.8080 -7.4880 251° West 442 509 36,000  Level FlightAware
07:29AM 54.7820 -7.6210 251° West 442 509 36,000  Level FlightAware
07:30AM 54.7620 -7.7230 251° West 442 509 36,000  Level FlightAware
07:30AM 54.7458 -7.7804 251° West 464 534 36,000  Level FlightAware UK
07:30AM 54.7259 -7.8799 251° West 464 534 36,000  Level FlightAware UK
07:31AM 54.7190 -7.9350 251° West 441 507 36,000  Level FlightAware
07:31AM 54.6890 -8.0840 251° West 442 509 36,000  Level FlightAware
07:32AM 54.6655 -8.1776 251° West 464 534 36,000  Level FlightAware UK
07:32AM 54.6620 -8.2170 251° West 441 507 36,000  Level FlightAware
07:33AM 54.6370 -8.3370 250° West 441 507 36,000  Level FlightAware
07:33AM 54.6060 -8.4860 250° West 442 509 36,000  Level FlightAware
07:33AM 54.6042 -8.4743 250° West 464 534 36,000  Level FlightAware UK
07:34AM 54.5838 -8.5734 250° West 464 534 36,000  Level FlightAware UK
07:34AM 54.5750 -8.6340 250° West 440 506 36,000  Level FlightAware
07:35AM 54.5460 -8.7690 250° West 440 506 36,000  Level FlightAware
07:35AM 54.5180 -8.8990 250° West 440 506 36,000  Level FlightAware
07:36AM 54.5164 -8.8887 250° West 464 534 36,000  Level FlightAware UK
07:36AM 54.4951 -8.9874 250° West 464 534 36,000  Level FlightAware UK
07:36AM 54.4860 -9.0490 250° West 442 509 36,000  Level FlightAware
07:37AM 54.4580 -9.1810 250° West 441 507 36,000  Level FlightAware
07:38AM 54.4250 -9.3310 249° West 441 507 36,000  Level FlightAware
07:38AM 54.3950 -9.4640 249° West 441 507 36,000  Level FlightAware
07:39AM 54.3670 -9.5940 250° West 442 509 36,000  Level FlightAware
07:40AM 54.3330 -9.7440 249° West 445 512 36,000  Level FlightAware
07:40AM 54.3040 -9.8740 249° West 445 512 36,000  Level FlightAware
07:41AM 54.2710 -10.0200 249° West 446 513 36,000  Level FlightAware
07:42AM 54.2410 -10.1530 249° West 447 514 36,000  Level FlightAware
07:43AM 54.2100 -10.2880 249° West 447 514 36,000  Level FlightAware
07:43AM 54.1800 -10.4190 249° West 448 516 36,000  Level FlightAware
07:44AM 54.1490 -10.5510 248° West 448 516 36,000  Level FlightAware
07:44AM 54.1230 -10.6650 249° West 448 516 36,000  Level FlightAware
07:46AM 54.0700 -10.8890 248° West 446 513 36,000  Level FlightAware
07:47AM 54.0260 -11.0770 248° West 447 514 36,000  Level FlightAware
07:47AM 53.9910 -11.2220 248° West 447 514 36,000  Level FlightAware
07:48AM 53.9590 -11.3540 248° West 447 514 36,000  Level FlightAware
07:49AM 53.9290 -11.4790 248° West 446 513 36,000  Level FlightAware
07:49AM 53.8960 -11.6140 248° West 447 514 36,000  Level FlightAware
07:50AM 53.8600 -11.7590 247° West 447 514 36,000  Level FlightAware
07:51AM 53.8280 -11.8910 248° West 447 514 36,000  Level FlightAware
07:51AM 53.7960 -12.0200 247° West 450 518 36,000  Level FlightAware
07:52AM 53.7590 -12.1680 247° West 450 518 36,000  Level FlightAware
07:53AM 53.7260 -12.2980 247° West 452 520 36,000  Level FlightAware
07:54AM 53.6900 -12.4410 247° West 451 519 36,000  Level FlightAware
07:54AM 53.6550 -12.5770 247° West 452 520 36,000  Level FlightAware
07:55AM 53.6210 -12.7100 247° West 452 520 36,000  Level FlightAware
07:56AM 53.5780 -12.8780 247° West 452 520 36,000  Level FlightAware
07:57AM 53.5320 -13.0550 246° West 451 519 36,000  Level FlightAware
07:57AM 53.4940 -13.2010 246° West 451 519 36,000  Level FlightAware
07:58AM 53.4650 -13.3130 247° West 450 518 36,000  Level FlightAware
07:59AM 53.4300 -13.4430 246° West 447 514 36,000  Level FlightAware
07:59AM 53.3970 -13.5690 246° West 448 516 36,000  Level FlightAware
08:00AM 53.3450 -13.7620 246° West 448 516 36,000  Level FlightAware
08:01AM 53.3040 -13.9120 245° Southwest 450 518 36,000  Level FlightAware
08:03AM 53.2390 -14.1550 246° West 450 518 36,000  Level FlightAware
08:03AM 53.2130 -14.2520 246° West 450 518 36,000  Level FlightAware
08:04AM 53.1790 -14.3820 246° West 450 518 36,000  Level FlightAware
08:05AM 53.1530 -14.4790 246° West 450 518 36,000  Level FlightAware
08:05AM 53.1180 -14.6080 246° West 450 518 36,000  Level FlightAware
08:06AM 53.0920 -14.7050 246° West 450 518 36,000  Level FlightAware
08:07AM 53.0580 -14.8340 246° West 450 518 36,000  Level FlightAware
08:07AM 53.0320 -14.9310 246° West 450 518 36,000  Level FlightAware
08:08AM 52.9970 -15.0600 246° West 450 518 36,000  Level FlightAware
08:09AM 52.9720 -15.1570 247° West 450 518 36,000  Level FlightAware
08:10AM 52.9370 -15.2850 246° West 450 518 36,000  Level FlightAware
08:10AM 52.9110 -15.3820 246° West 450 518 36,000  Level FlightAware
08:11AM 52.8730 -15.5240 246° West 450 518 36,000  Level FlightAware
08:14AM 52.9057 -15.9808 277° West  Level Estimated
08:15AM 52.9189 -16.1727 277° West  Level Estimated
08:16AM 52.9318 -16.3647 276° West  Level Estimated
08:17AM 52.8861 -16.5576 249° West  Level FlightAware Approximate
08:18AM 52.8401 -16.7501 248° West  Level FlightAware Approximate
08:19AM 52.7938 -16.9422 248° West  Level FlightAware Approximate
08:20AM 52.7472 -17.1338 248° West  Level FlightAware Approximate
08:21AM 52.7002 -17.3251 248° West  Level FlightAware Approximate
08:22AM 52.6530 -17.5159 248° West  Level FlightAware Approximate
08:23AM 52.6054 -17.7064 248° West  Level FlightAware Approximate
08:24AM 52.5576 -17.8964 248° West  Level FlightAware Approximate
08:25AM 52.5094 -18.0860 247° West  Level FlightAware Approximate
08:26AM 52.4610 -18.2752 247° West  Level FlightAware Approximate
08:27AM 52.4122 -18.4640 247° West  Level FlightAware Approximate
08:28AM 52.3631 -18.6523 247° West  Level FlightAware Approximate
08:29AM 52.3138 -18.8402 247° West  Level FlightAware Approximate
08:30AM 52.2641 -19.0278 247° West  Level FlightAware Approximate
08:31AM 52.2141 -19.2148 247° West  Level FlightAware Approximate
08:32AM 52.1639 -19.4015 246° West  Level FlightAware Approximate
08:32AM 52.0000 -20.0000 265° West 482 555 36,000  Level ETMS Enhanced Traffic Management System
08:33AM 52.1133 -19.5878 246° West  Level FlightAware Approximate
08:34AM 52.0625 -19.7736 246° West  Level FlightAware Approximate
08:35AM 52.0114 -19.9590 246° West  Level FlightAware Approximate
08:36AM 51.9909 -20.1579 265° West  Level FlightAware Approximate
08:37AM 51.9789 -20.3599 265° West  Level FlightAware Approximate
08:38AM 51.9202 -21.2987 264° West 482 555 36,000  Level FlightAware Transoceanic
08:39AM 51.9055 -21.5147 264° West 482 555 36,000  Level FlightAware Transoceanic
08:40AM 51.8904 -21.7305 263° West 482 555 36,000  Level FlightAware Transoceanic
08:41AM 51.8749 -21.9462 263° West 482 555 36,000  Level FlightAware Transoceanic
08:42AM 51.8590 -22.1617 263° West 482 555 36,000  Level FlightAware Transoceanic
08:43AM 51.8427 -22.3771 263° West 482 555 36,000  Level FlightAware Transoceanic
08:44AM 51.8261 -22.5923 263° West 482 555 36,000  Level FlightAware Transoceanic
08:45AM 51.8090 -22.8074 263° West 482 555 36,000  Level FlightAware Transoceanic
08:46AM 51.7916 -23.0223 262° West 482 555 36,000  Level FlightAware Transoceanic
08:47AM 51.7737 -23.2370 262° West 482 555 36,000  Level FlightAware Transoceanic
08:48AM 51.7555 -23.4516 262° West 482 555 36,000  Level FlightAware Transoceanic
08:49AM 51.7369 -23.6660 262° West 482 555 36,000  Level FlightAware Transoceanic
08:50AM 51.7179 -23.8802 262° West 482 555 36,000  Level FlightAware Transoceanic
08:51AM 51.6985 -24.0942 262° West 482 555 36,000  Level FlightAware Transoceanic
08:52AM 51.6787 -24.3081 261° West 482 555 36,000  Level FlightAware Transoceanic
08:53AM 51.6585 -24.5217 261° West 482 555 36,000  Level FlightAware Transoceanic
08:54AM 51.6379 -24.7352 261° West 482 555 36,000  Level FlightAware Transoceanic
08:55AM 51.6170 -24.9484 261° West 482 555 36,000  Level FlightAware Transoceanic
08:56AM 51.5956 -25.1615 261° West 482 555 36,000  Level FlightAware Transoceanic
08:57AM 51.5739 -25.3744 261° West 482 555 36,000  Level FlightAware Transoceanic
08:58AM 51.5518 -25.5870 260° West 482 555 36,000  Level FlightAware Transoceanic
08:59AM 51.5293 -25.7995 260° West 482 555 36,000  Level FlightAware Transoceanic
09:00AM 51.5065 -26.0117 260° West 482 555 36,000  Level FlightAware Transoceanic
09:01AM 51.4832 -26.2237 260° West 482 555 36,000  Level FlightAware Transoceanic
09:02AM 51.4596 -26.4356 260° West 482 555 36,000  Level FlightAware Transoceanic
09:03AM 51.4355 -26.6471 260° West 482 555 36,000  Level FlightAware Transoceanic
09:04AM 51.4111 -26.8585 259° West 482 555 36,000  Level FlightAware Transoceanic
09:05AM 51.3864 -27.0696 259° West 482 555 36,000  Level FlightAware Transoceanic
09:06AM 51.3612 -27.2805 259° West 482 555 36,000  Level FlightAware Transoceanic
09:07AM 51.3357 -27.4912 259° West 482 555 36,000  Level FlightAware Transoceanic
09:08AM 51.3097 -27.7016 259° West 482 555 36,000  Level FlightAware Transoceanic
09:09AM 51.2835 -27.9118 259° West 482 555 36,000  Level FlightAware Transoceanic
09:10AM 51.2568 -28.1218 258° West 482 555 36,000  Level FlightAware Transoceanic
09:11AM 51.2297 -28.3315 258° West 482 555 36,000  Level FlightAware Transoceanic
09:12AM 51.2023 -28.5410 258° West 482 555 36,000  Level FlightAware Transoceanic
09:13AM 51.1745 -28.7502 258° West 482 555 36,000  Level FlightAware Transoceanic
09:14AM 51.1464 -28.9591 258° West 482 555 36,000  Level FlightAware Transoceanic
09:15AM 51.1178 -29.1678 258° West 482 555 36,000  Level FlightAware Transoceanic
09:16AM 51.0889 -29.3763 257° West 482 555 36,000  Level FlightAware Transoceanic
09:17AM 51.0597 -29.5844 257° West 482 555 36,000  Level FlightAware Transoceanic
09:18AM 51.0300 -29.7924 257° West 482 555 36,000  Level FlightAware Transoceanic
09:19AM 51.0020 -29.9860 257° West  Level FlightAware Approximate
09:20AM 50.9737 -30.1794 257° West  Level FlightAware Approximate
09:21AM 50.9751 -30.1651 257° West  Level FlightAware Approximate
09:22AM 50.9457 -30.3580 256° West  Level FlightAware Approximate
09:23AM 50.9160 -30.5506 256° West  Level FlightAware Approximate
09:24AM 50.8859 -30.7430 256° West  Level FlightAware Approximate
09:25AM 50.8556 -30.9351 256° West  Level FlightAware Approximate
09:26AM 50.8249 -31.1270 256° West  Level FlightAware Approximate
09:27AM 50.7939 -31.3186 256° West  Level FlightAware Approximate
09:28AM 50.7626 -31.5100 256° West  Level FlightAware Approximate
09:29AM 50.7310 -31.7011 255° West  Level FlightAware Approximate
09:30AM 50.6991 -31.8919 255° West  Level FlightAware Approximate
09:31AM 50.6668 -32.0825 255° West  Level FlightAware Approximate
09:32AM 50.6343 -32.2728 255° West  Level FlightAware Approximate
09:33AM 50.6014 -32.4629 255° West  Level FlightAware Approximate
09:34AM 50.5682 -32.6527 255° West  Level FlightAware Approximate
09:35AM 50.5348 -32.8422 255° West  Level FlightAware Approximate
09:36AM 50.5010 -33.0314 254° West  Level FlightAware Approximate
09:37AM 50.4669 -33.2204 254° West  Level FlightAware Approximate
09:38AM 50.4325 -33.4091 254° West  Level FlightAware Approximate
09:39AM 50.3978 -33.5976 254° West  Level FlightAware Approximate
09:40AM 50.3628 -33.7857 254° West  Level FlightAware Approximate
09:41AM 50.3275 -33.9736 254° West  Level FlightAware Approximate
09:42AM 50.2919 -34.1612 254° West  Level FlightAware Approximate
09:43AM 50.2560 -34.3485 253° West  Level FlightAware Approximate
09:44AM 50.2198 -34.5356 253° West  Level FlightAware Approximate
09:45AM 50.1833 -34.7223 253° West  Level FlightAware Approximate
09:46AM 50.1465 -34.9088 253° West  Level FlightAware Approximate
09:47AM 50.1093 -35.0949 253° West  Level FlightAware Approximate
09:48AM 50.0719 -35.2808 253° West  Level FlightAware Approximate
09:49AM 50.0342 -35.4664 253° West  Level FlightAware Approximate
09:50AM 49.9962 -35.6517 252° West  Level FlightAware Approximate
09:51AM 49.9580 -35.8367 252° West  Level FlightAware Approximate
09:52AM 49.9194 -36.0214 252° West  Level FlightAware Approximate
09:53AM 49.8805 -36.2059 252° West  Level FlightAware Approximate
09:54AM 49.8413 -36.3900 252° West  Level FlightAware Approximate
09:55AM 49.8019 -36.5738 252° West  Level FlightAware Approximate
09:56AM 49.7621 -36.7573 252° West  Level FlightAware Approximate
09:57AM 49.7221 -36.9405 251° West  Level FlightAware Approximate
09:58AM 49.6817 -37.1235 251° West  Level FlightAware Approximate
09:59AM 49.6411 -37.3061 251° West  Level FlightAware Approximate
10:00AM 49.6002 -37.4884 251° West  Level FlightAware Approximate
10:01AM 49.5590 -37.6704 251° West  Level FlightAware Approximate
10:02AM 49.5176 -37.8521 251° West  Level FlightAware Approximate
10:03AM 49.4758 -38.0334 251° West  Level FlightAware Approximate
10:04AM 49.4338 -38.2145 250° West  Level FlightAware Approximate
10:05AM 49.3914 -38.3953 250° West  Level FlightAware Approximate
10:06AM 49.3488 -38.5757 250° West  Level FlightAware Approximate
10:07AM 49.3060 -38.7558 250° West  Level FlightAware Approximate
10:08AM 49.2628 -38.9357 250° West  Level FlightAware Approximate
10:09AM 49.2194 -39.1152 250° West  Level FlightAware Approximate
10:10AM 49.1756 -39.2943 250° West  Level FlightAware Approximate
10:11AM 49.1316 -39.4732 249° West  Level FlightAware Approximate
10:12AM 49.0874 -39.6518 249° West  Level FlightAware Approximate
10:13AM 49.0428 -39.8300 249° West  Level FlightAware Approximate
10:14AM 48.9987 -40.0083 257° West  Level FlightAware Approximate
10:15AM 48.9696 -40.1935 257° West  Level FlightAware Approximate
10:16AM 48.9401 -40.3785 256° West  Level FlightAware Approximate
10:17AM 48.9104 -40.5633 256° West  Level FlightAware Approximate
10:18AM 48.8804 -40.7478 256° West  Level FlightAware Approximate
10:19AM 48.8501 -40.9321 256° West  Level FlightAware Approximate
10:20AM 48.8195 -41.1162 256° West  Level FlightAware Approximate
10:21AM 48.7889 -41.2981 256° West  Level FlightAware Approximate
10:22AM 48.7580 -41.4797 256° West  Level FlightAware Approximate
10:23AM 48.7269 -41.6612 255° West  Level FlightAware Approximate
10:24AM 48.6955 -41.8424 255° West  Level FlightAware Approximate
10:25AM 48.6638 -42.0233 255° West  Level FlightAware Approximate
10:26AM 48.6318 -42.2041 255° West  Level FlightAware Approximate
10:27AM 48.5995 -42.3846 255° West  Level FlightAware Approximate
10:28AM 48.5670 -42.5648 255° West  Level FlightAware Approximate
10:29AM 48.5356 -42.7455 255° West  Level FlightAware Approximate
10:30AM 48.5039 -42.9259 255° West  Level FlightAware Approximate
10:31AM 48.4720 -43.1061 255° West  Level FlightAware Approximate
10:32AM 48.4398 -43.2860 255° West  Level FlightAware Approximate
10:33AM 48.4073 -43.4658 255° West  Level FlightAware Approximate
10:34AM 48.3745 -43.6452 255° West  Level FlightAware Approximate
10:35AM 48.3414 -43.8245 255° West  Level FlightAware Approximate
10:36AM 48.3081 -44.0036 254° West  Level FlightAware Approximate
10:37AM 48.2745 -44.1824 254° West  Level FlightAware Approximate
10:38AM 48.2406 -44.3609 254° West  Level FlightAware Approximate
10:39AM 48.2064 -44.5392 254° West  Level FlightAware Approximate
10:40AM 48.1720 -44.7173 254° West  Level FlightAware Approximate
10:41AM 48.1373 -44.8952 254° West  Level FlightAware Approximate
10:42AM 48.1023 -45.0728 254° West  Level FlightAware Approximate
10:43AM 48.0670 -45.2501 253° West  Level FlightAware Approximate
10:44AM 48.0315 -45.4272 253° West  Level FlightAware Approximate
10:45AM 47.9957 -45.6041 253° West  Level FlightAware Approximate
10:46AM 47.9596 -45.7808 253° West  Level FlightAware Approximate
10:47AM 47.9232 -45.9571 253° West  Level FlightAware Approximate
10:48AM 47.8866 -46.1333 253° West  Level FlightAware Approximate
10:49AM 47.8497 -46.3091 253° West  Level FlightAware Approximate
10:50AM 47.8126 -46.4848 253° West  Level FlightAware Approximate
10:51AM 47.7751 -46.6601 252° West  Level FlightAware Approximate
10:52AM 47.7374 -46.8353 252° West  Level FlightAware Approximate
10:53AM 47.6995 -47.0101 252° West  Level FlightAware Approximate
10:54AM 47.6613 -47.1848 252° West  Level FlightAware Approximate
10:55AM 47.6228 -47.3591 252° West  Level FlightAware Approximate
10:56AM 47.5840 -47.5332 252° West  Level FlightAware Approximate
10:57AM 47.5450 -47.7071 252° West  Level FlightAware Approximate
10:58AM 47.5057 -47.8806 252° West  Level FlightAware Approximate
10:59AM 47.4662 -48.0540 251° West  Level FlightAware Approximate
11:00AM 47.4264 -48.2270 251° West  Level FlightAware Approximate
11:01AM 47.3863 -48.3998 251° West  Level FlightAware Approximate
11:02AM 47.3460 -48.5724 251° West  Level FlightAware Approximate
11:03AM 47.3054 -48.7446 251° West  Level FlightAware Approximate
11:04AM 47.2646 -48.9166 251° West  Level FlightAware Approximate
11:05AM 47.2235 -49.0884 251° West  Level FlightAware Approximate
11:06AM 47.1822 -49.2598 251° West  Level FlightAware Approximate
11:06AM 47.3060 -48.9210 251° West 446 513 37,000  Level FlightAware
11:06AM 47.2780 -49.0370 250° West 445 512 37,000  Level FlightAware
11:07AM 47.2540 -49.1370 251° West 445 512 37,000  Level FlightAware
11:08AM 47.2230 -49.2620 250° West 444 511 37,000  Level FlightAware
11:09AM 47.1850 -49.4180 250° West 445 512 37,000  Level FlightAware
11:09AM 47.1550 -49.5390 250° West 445 512 37,000  Level FlightAware
11:10AM 47.1230 -49.6630 249° West 445 512 37,000  Level FlightAware
11:11AM 47.0780 -49.8440 250° West 446 513 37,000  Level FlightAware
11:12AM 47.0540 -49.9410 250° West 446 513 37,000  Level FlightAware
11:13AM 47.0100 -50.1170 250° West 446 513 37,000 180 Level FlightAware
11:16AM 46.9373 -50.5707 257° West  Level FlightAware Approximate
11:17AM 46.9087 -50.7459 257° West  Level FlightAware Approximate
11:17AM 46.9030 -50.9220 257° West 449 517 38,000  Level FlightAware
11:18AM 46.8870 -51.0260 257° West 450 518 38,000  Level FlightAware
11:19AM 46.8480 -51.2840 258° West 452 520 38,000  Level FlightAware
11:20AM 46.8230 -51.4420 257° West 451 519 38,000  Level FlightAware
11:21AM 46.8050 -51.5600 257° West 450 518 38,000  Level FlightAware
11:22AM 46.7820 -51.7050 257° West 448 516 38,000  Level FlightAware
11:22AM 46.7630 -51.8230 257° West 447 514 38,000  Level FlightAware
11:23AM 46.7420 -51.9520 257° West 445 512 38,000  Level FlightAware
11:24AM 46.7250 -52.0620 257° West 445 512 38,000  Level FlightAware
11:24AM 46.7030 -52.1950 256° West 447 514 38,000  Level FlightAware
11:25AM 46.6840 -52.3120 257° West 447 514 38,000  Level FlightAware
11:26AM 46.6630 -52.4390 256° West 448 516 38,000  Level FlightAware
11:26AM 46.6430 -52.5580 256° West 449 517 38,000  Level FlightAware
11:27AM 46.6230 -52.6810 257° West 449 517 38,000  Level FlightAware
11:28AM 46.6010 -52.8070 256° West 450 518 38,000  Level FlightAware
11:29AM 46.5810 -52.9280 257° West 452 520 38,000  Level FlightAware
11:29AM 46.5590 -53.0590 256° West 453 521 38,000  Level FlightAware
11:31AM 46.5200 -53.2830 256° West 454 522 38,000  Level FlightAware
11:32AM 46.4910 -53.4520 256° West 455 524 38,000  Level FlightAware
11:32AM 46.4690 -53.5780 256° West 457 526 38,000  Level FlightAware
11:33AM 46.4510 -53.6790 256° West 457 526 38,000  Level FlightAware
11:34AM 46.4290 -53.8030 256° West 457 526 38,000  Level FlightAware
11:34AM 46.4060 -53.9300 255° West 458 527 38,000  Level FlightAware
11:35AM 46.3840 -54.0530 256° West 458 527 38,000  Level FlightAware
11:36AM 46.3660 -54.1520 255° West 458 527 38,000  Level FlightAware
11:36AM 46.3440 -54.2730 255° West 458 527 38,000  Level FlightAware
11:37AM 46.3270 -54.3640 255° West 458 527 38,000  Level FlightAware
11:38AM 46.2990 -54.5210 256° West 38,000  Level FlightAware
11:39AM 46.2620 -54.7220 255° West 457 526 38,000  Level FlightAware
11:40AM 46.2250 -54.9070 254° West 457 526 38,000  Level FlightAware
11:41AM 46.2070 -54.9990 254° West 457 526 38,000  Level FlightAware
11:41AM 46.1820 -55.1220 254° West 457 526 38,000  Level FlightAware
11:42AM 46.1630 -55.2160 254° West 457 526 38,000  Level FlightAware
11:43AM 46.1280 -55.4260 257° West 38,000  Level FlightAware
11:47AM 45.9660 -56.2460 254° West 458 527 38,000  Level FlightAware
11:48AM 45.9390 -56.3790 254° West 457 526 38,000  Level FlightAware
11:49AM 45.9220 -56.4590 253° West 457 526 38,000  Level FlightAware
11:49AM 45.8970 -56.5780 253° West 457 526 38,000  Level FlightAware
11:50AM 45.8730 -56.6910 253° West 457 526 38,000  Level FlightAware
11:51AM 45.8540 -56.7800 253° West 457 526 38,000  Level FlightAware
11:52AM 45.8300 -56.8940 253° West 457 526 38,000  Level FlightAware
11:52AM 45.8110 -56.9820 253° West 457 526 38,000  Level FlightAware
11:53AM 45.7920 -57.0710 253° West 457 526 38,000  Level FlightAware
11:53AM 45.7490 -57.2960 255° West 454 522 38,000  Level FlightAware
11:54AM 45.7240 -57.4140 253° West 454 522 38,000  Level FlightAware
11:55AM 45.6980 -57.5350 253° West 456 525 38,000  Level FlightAware
11:56AM 45.6700 -57.6620 253° West 456 525 38,000  Level FlightAware
11:56AM 45.6430 -57.7880 253° West 456 525 38,000  Level FlightAware
11:57AM 45.6170 -57.9040 252° West 456 525 38,000  Level FlightAware
11:58AM 45.5900 -58.0300 253° West 457 526 38,000  Level FlightAware
11:58AM 45.5660 -58.1380 252° West 457 526 38,000  Level FlightAware
11:59AM 45.5380 -58.2630 252° West 457 526 38,000  Level FlightAware
11:59AM 45.5220 -58.3330 252° West 457 526 38,000  Level FlightAware
12:01PM 45.4790 -58.5270 253° West 457 526 38,000  Level FlightAware
12:01PM 45.4510 -58.6490 252° West 458 527 38,000  Level FlightAware
12:02PM 45.4290 -58.7460 252° West 457 526 38,000  Level FlightAware
12:03PM 45.4010 -58.8700 252° West 458 527 38,000  Level FlightAware
12:03PM 45.3740 -58.9850 252° West 458 527 38,000  Level FlightAware
12:04PM 45.3460 -59.1060 252° West 459 528 38,000  Level FlightAware
12:05PM 45.3200 -59.2170 252° West 459 528 38,000  Level FlightAware
12:05PM 45.2900 -59.3440 251° West 458 527 38,000  Level FlightAware
12:06PM 45.2620 -59.4640 252° West 459 528 38,000  Level FlightAware
12:07PM 45.2380 -59.5670 252° West 460 529 38,000  Level FlightAware
12:07PM 45.2130 -59.6700 251° West 460 529 38,000  Level FlightAware
12:08PM 45.1790 -59.8110 251° West 460 529 38,000  Level FlightAware
12:09PM 45.1540 -59.9140 251° West 460 529 38,000  Level FlightAware
12:09PM 45.1300 -60.0150 251° West 461 531 38,000  Level FlightAware
12:10PM 45.0990 -60.1410 251° West 462 532 38,000  Level FlightAware
12:11PM 45.0580 -60.3080 251° West 463 533 38,000  Level FlightAware
12:12PM 45.0200 -60.4610 251° West 463 533 38,000  Level FlightAware
12:13PM 44.9910 -60.5800 251° West 464 534 38,000  Level FlightAware
12:13PM 44.9590 -60.7060 250° West 463 533 38,000  Level FlightAware
12:14PM 44.9360 -60.7970 250° West 463 533 38,000  Level FlightAware
12:14PM 44.9140 -60.8850 251° West 464 534 38,000  Level FlightAware
12:16PM 44.8620 -61.0870 250° West 464 534 38,000  Level FlightAware
12:16PM 44.8380 -61.1790 250° West 464 534 38,000  Level FlightAware
12:17PM 44.8100 -61.2900 250° West 464 534 38,000  Level FlightAware
12:18PM 44.7860 -61.3820 250° West 464 534 38,000  Level FlightAware
12:19PM 44.7560 -61.4980 250° West 464 534 38,000  Level FlightAware
12:19PM 44.7330 -61.5850 250° West 464 534 38,000  Level FlightAware
12:20PM 44.7030 -61.7000 250° West 464 534 38,000  Level FlightAware
12:21PM 44.6810 -61.7870 250° West 464 534 38,000  Level FlightAware
12:21PM 44.6510 -61.9030 250° West 464 534 38,000  Level FlightAware
12:22PM 44.6290 -61.9900 250° West 464 534 38,000  Level FlightAware
12:23PM 44.5910 -62.1340 250° West 464 534 38,000  Level FlightAware
12:24PM 44.5690 -62.2210 250° West 464 534 38,000  Level FlightAware
12:24PM 44.4780 -62.5420 248° West 464 534 38,000  Level FlightAware
12:25PM 44.4380 -62.6870 249° West 464 534 38,000  Level FlightAware
12:26PM 44.4080 -62.7940 249° West 463 533 38,000  Level FlightAware
12:26PM 44.3790 -62.9020 249° West 462 532 38,000  Level FlightAware
12:27PM 44.3510 -63.0020 249° West 462 532 38,000  Level FlightAware
12:28PM 44.3170 -63.1220 248° West 463 533 38,000  Level FlightAware
12:28PM 44.2900 -63.2190 249° West 462 532 38,000  Level FlightAware
12:29PM 44.2520 -63.3560 249° West 463 533 38,000  Level FlightAware
12:30PM 44.2260 -63.4470 248° West 463 533 38,000  Level FlightAware
12:30PM 44.1950 -63.5560 248° West 463 533 38,000  Level FlightAware
12:31PM 44.1600 -63.6770 248° West 461 531 38,000  Level FlightAware
12:32PM 44.1280 -63.7900 249° West 460 529 38,000  Level FlightAware
12:32PM 44.0920 -63.9160 248° West 459 528 38,000  Level FlightAware
12:33PM 44.0640 -64.0120 248° West 459 528 38,000  Level FlightAware
12:34PM 44.0320 -64.1220 248° West 459 528 38,000  Level FlightAware
12:35PM 43.9980 -64.2590 251° West 457 526 38,000  Level FlightAware
12:35PM 43.9820 -64.3350 254° West 457 526 38,000  Level FlightAware
12:36PM 43.9590 -64.4430 254° West 458 527 38,000  Level FlightAware
12:36PM 43.9290 -64.5870 254° West 458 527 38,000  Level FlightAware
12:37PM 43.9050 -64.7020 254° West 458 527 38,000  Level FlightAware
12:38PM 43.8790 -64.8250 254° West 459 528 38,000  Level FlightAware
12:39PM 43.8540 -64.9400 253° West 459 528 38,000  Level FlightAware
12:39PM 43.8270 -65.0650 253° West 459 528 38,000  Level FlightAware
12:40PM 43.8020 -65.1790 253° West 459 528 38,000  Level FlightAware
12:41PM 43.7780 -65.2890 253° West 460 529 38,000  Level FlightAware
12:41PM 43.7500 -65.4160 253° West 460 529 38,000  Level FlightAware
12:42PM 43.7250 -65.5280 253° West 459 528 38,000  Level FlightAware
12:43PM 43.6970 -65.6540 253° West 461 531 38,000  Level FlightAware
12:43PM 43.6710 -65.7720 253° West 462 532 38,000  Level FlightAware
12:44PM 43.6430 -65.8950 253° West 463 533 38,000  Level FlightAware
12:45PM 43.6200 -65.9990 253° West 465 535 38,000  Level FlightAware
12:45PM 43.5950 -66.1090 253° West 467 537 38,000  Level FlightAware
12:46PM 43.5680 -66.2260 252° West 468 539 38,000  Level FlightAware
12:47PM 43.5430 -66.3360 253° West 469 540 38,000  Level FlightAware
12:47PM 43.5230 -66.4260 253° West 469 540 38,000  Level FlightAware
12:48PM 43.5000 -66.5240 252° West 473 544 38,000  Level FlightAware
12:49PM 43.4540 -66.7210 252° West 474 545 38,000  Level FlightAware
12:50PM 43.4090 -66.9140 252° West 474 545 38,000  Level FlightAware
12:51PM 43.3890 -66.9970 252° West 474 545 38,000  Level FlightAware
12:52PM 43.3620 -67.1140 252° West 474 545 38,000  Level FlightAware
12:53PM 43.3010 -67.3700 252° West 474 545 38,000  Level FlightAware
12:53PM 43.2740 -67.4790 251° West 475 547 38,000  Level FlightAware
12:55PM 43.2300 -67.6620 252° West 475 547 38,000  Level FlightAware
12:55PM 43.2030 -67.7740 252° West 475 547 38,000  Level FlightAware
12:56PM 43.1730 -67.8990 252° West 472 543 38,000  Level FlightAware
12:57PM 43.1410 -68.0250 251° West 472 543 38,000  Level FlightAware
12:57PM 43.1130 -68.1420 252° West 472 543 38,000  Level FlightAware
12:58PM 43.0840 -68.2570 251° West 472 543 38,000  Level FlightAware
12:59PM 43.0520 -68.3860 251° West 472 543 38,000  Level FlightAware
01:00PM 43.0140 -68.5370 251° West 471 542 38,000  Level FlightAware
01:00PM 42.9850 -68.6550 251° West 470 541 38,000  Level FlightAware
01:01PM 42.9560 -68.7690 251° West 469 540 38,000  Level FlightAware
01:02PM 42.9240 -68.8930 251° West 467 537 38,000  Level FlightAware
01:02PM 42.8950 -69.0060 251° West 467 537 38,000  Level FlightAware
01:03PM 42.8670 -69.1170 251° West 467 537 38,000  Level FlightAware
01:04PM 42.8380 -69.2300 251° West 468 539 38,000  Level FlightAware
01:05PM 42.8050 -69.3550 250° West 468 539 38,000  Level FlightAware
01:05PM 42.7830 -69.4400 251° West 468 539 38,000  Level FlightAware
01:06PM 42.7510 -69.5640 251° West 468 539 38,000  Level FlightAware
01:06PM 42.7250 -69.6630 250° West 468 539 38,000  Level FlightAware
01:07PM 42.6910 -69.7890 250° West 470 541 38,000 -540 Level FlightAware
01:08PM 42.6580 -69.9140 250° West 471 542 37,200 -1,740 Descending FlightAware
01:09PM 42.6280 -70.0270 250° West 475 547 35,600 -2,520 Descending FlightAware
01:09PM 42.5950 -70.1510 250° West 475 547 33,700 -2,640 Descending FlightAware
01:10PM 42.5720 -70.2370 250° West 475 547 32,300 -2,640 Descending FlightAware
01:11PM 42.5330 -70.3810 250° West 480 552 29,700 -2,460 Descending FlightAware
01:11PM 42.4960 -70.5180 250° West 480 552 28,100 -1,080 Descending FlightAware
01:12PM 42.4510 -70.6830 250° West 483 556 28,000 -120 Descending FlightAware
01:13PM 42.4180 -70.8030 250° West 484 557 28,000  Level FlightAware
01:14PM 42.3890 -70.9070 249° West 484 557 28,000  Level FlightAware
01:15PM 42.3520 -71.0440 250° West 495 570 28,000 -480 Level FlightAware
01:15PM 42.3240 -71.1430 249° West 476 548 27,400 -1,980 Descending FlightAware
01:16PM 42.2970 -71.2560 252° West 473 544 25,500 -2,580 Descending FlightAware
01:17PM 42.2680 -71.3800 252° West 466 536 23,800 -1,860 Descending FlightAware
01:17PM 42.2430 -71.4930 253° West 453 521 22,900 -1,260 Descending FlightAware
01:18PM 42.2200 -71.5890 252° West 451 519 22,200 -1,140 Descending FlightAware
01:19PM 42.1930 -71.7080 253° West 443 510 21,400 -1,140 Descending FlightAware
01:19PM 42.1690 -71.8120 253° West 440 506 20,600 -1,140 Descending FlightAware
01:20PM 42.1440 -71.9170 252° West 438 504 19,900 -1,080 Descending FlightAware
01:21PM 42.1170 -72.0340 253° West 434 499 19,100 -540 Descending FlightAware
01:22PM 42.0860 -72.1630 252° West 434 499 19,000 -120 Descending FlightAware
01:22PM 42.0670 -72.2410 252° West 434 499 19,000  Level FlightAware
01:23PM 42.0410 -72.3460 252° West 434 499 19,000  Level FlightAware
01:23PM 42.0290 -72.3990 253° West 434 499 19,000  Level FlightAware
01:24PM 42.0100 -72.4770 252° West 434 499 19,000 -1,800 Level FlightAware
01:25PM 41.9564 -72.6578 252° West 414 476 16,000 -1,440 Descending Boston Center
01:26PM 41.9142 -72.8306 252° West 414 476 16,000  Level Boston Center
01:27PM 41.8803 -72.9756 253° West 409 471 16,000 -600 Level Boston Center
01:33PM 41.5790 -73.6850 253° West 384 442 12,400 -840 Descending FlightAware
01:33PM 41.5540 -73.7540 244° Southwest 374 430 11,100 -1,680 Descending FlightAware
01:34PM 41.5180 -73.8560 245° Southwest 332 382 10,100 -960 Descending FlightAware
01:34PM 41.5050 -73.8910 244° Southwest 314 361 10,000 -480 Descending FlightAware
01:35PM 41.4924 -73.9254 244° Southwest 300 345 9,800 -540 Descending FlightAware ADS-B
01:35PM 41.4834 -73.9507 245° Southwest 283 326 9,700 -360 Descending FlightAware ADS-B
01:36PM 41.4620 -74.0080 244° Southwest 274 315 9,500 -1,320 Descending FlightAware
01:36PM 41.4440 -74.0588 245° Southwest 269 310 8,200 -2,220 Descending FlightAware ADS-B
01:36PM 41.4342 -74.0854 244° Southwest 267 307 7,800 -1,320 Descending FlightAware ADS-B
01:37PM 41.4181 -74.1173 236° Southwest 267 307 7,300 -1,320 Descending FlightAware ADS-B
01:37PM 41.3922 -74.1513 225° Southwest 267 307 6,700 -960 Descending FlightAware ADS-B
01:38PM 41.3732 -74.1754 224° Southwest 265 305 6,500 -780 Descending FlightAware ADS-B
01:38PM 41.3575 -74.1948 223° Southwest 262 302 6,200 -1,200 Descending FlightAware ADS-B
01:39PM 41.3246 -74.2358 223° Southwest 257 296 5,400 -1,380 Descending FlightAware ADS-B
01:39PM 41.3053 -74.2514 211° Southwest 266 306 4,900 -1,380 Descending FlightAware ADS-B
01:39PM 41.2877 -74.2617 204° Southwest 269 310 4,600 -180 Descending FlightAware ADS-B
01:40PM 41.2094 -74.2773 189° South 266 306 4,700 60 Climbing FlightAware ADS-B
01:41PM 41.1924 -74.2676 157° South 245 282 4,700 -240 Level FlightAware ADS-B
01:41PM 41.1764 -74.2579 155° Southeast 244 281 4,600  Descending FlightAware ADS-B
01:41PM 41.1539 -74.2442 155° Southeast 241 277 4,700  Climbing FlightAware ADS-B
01:41PM 41.1373 -74.2341 155° Southeast 240 276 4,600  Descending FlightAware ADS-B
01:42PM 41.1215 -74.2243 155° Southeast 242 278 4,700  Climbing FlightAware ADS-B
01:42PM 41.0976 -74.2101 156° South 243 280 4,600 -180 Descending FlightAware ADS-B
01:42PM 41.0806 -74.1998 155° Southeast 244 281 4,600 -780 Level FlightAware ADS-B
01:43PM 41.0160 -74.1610 156° South 226 260 3,600 -840 Descending FlightAware
01:44PM 41.0058 -74.1552 157° South 235 270 3,600 120 Level FlightAware ADS-B
01:44PM 40.9831 -74.1415 156° South 235 270 3,700  Climbing FlightAware ADS-B
01:44PM 40.9678 -74.1326 156° South 213 245 3,600 -180 Descending FlightAware ADS-B
01:45PM 40.9478 -74.1206 156° South 213 245 3,600 -840 Level FlightAware ADS-B
01:46PM 40.9067 -74.0956 155° Southeast 210 242 2,700 -780 Descending FlightAware ADS-B
01:46PM 40.8707 -74.0770 159° South 210 242 2,500 -360 Descending FlightAware ADS-B
01:46PM 40.8582 -74.0755 175° South 203 234 2,400 -360 Descending FlightAware ADS-B
01:46PM 40.8542 -74.0755 180° South 200 230 2,400 -600 Level FlightAware ADS-B
01:47PM 40.8484 -74.0758 182° South 195 224 2,300 -720 Descending FlightAware ADS-B
01:47PM 40.8386 -74.0788 193° South 184 212 2,200 -360 Descending FlightAware ADS-B
01:47PM 40.8333 -74.0815 201° Southwest 181 208 2,200  Level FlightAware ADS-B
01:47PM 40.8250 -74.0865 205° Southwest 177 204 2,200 -660 Level FlightAware ADS-B
01:48PM 40.8039 -74.1000 206° Southwest 178 205 1,800 -840 Descending FlightAware ADS-B
01:48PM 40.7975 -74.1040 205° Southwest 169 194 1,700 -960 Descending FlightAware ADS-B
01:48PM 40.7867 -74.1101 203° Southwest 163 188 1,400 -1,080 Descending FlightAware ADS-B
01:48PM 40.7821 -74.1129 205° Southwest 158 182 1,300 -840 Descending FlightAware ADS-B
01:48PM 40.7763 -74.1163 204° Southwest 153 176 1,200 -660 Descending FlightAware ADS-B
01:49PM 40.7630 -74.1244 205° Southwest 152 175 1,000 -660 Descending FlightAware ADS-B
01:49PM 40.7577 -74.1275 204° Southwest 147 169 900 -900 Descending FlightAware ADS-B
01:49PM 40.7507 -74.1318 205° Southwest 145 167 700 -900 Descending FlightAware ADS-B
01:49PM 40.7418 -74.1371 204° Southwest 135 155 500 -360 Descending FlightAware ADS-B
01:50PM 40.7230 -74.1480 204° Southwest 134 154 400 -180 Descending FlightAware